Anjeliersgracht — PCGQ — position and weather

sailwx.info

Track history (hours):
 
Tides and Currents Weather Stations Pressure Air Temp Water Temp Dewpoint Dewpoint Depression Visibility Wind Speed Wind Dir Waves Ship Positions

Anjeliersgracht

Last reported at 2015-Jul-07 17:33 UTC. Time now 2015-Jul-07 17:36 UTC.
Position N 58°20' E 011°52'.

Length 130 m; beam 19 m; draft 9 m.

Type: Cargo ship. MMSI: 244716000.

Date/timePositionNaut miles runAvg speedWind from/ knotsBaromVisibWave heightAir tempDewpointWater temp
2015-Jul-07 17:33N 58°20' E 011°52'1 1.3
2015-Jul-07 16:34N 58°21' E 011°54'0 0.0
2015-Jul-07 15:33N 58°21' E 011°54'0 0.0
2015-Jul-07 06:09N 58°21' E 011°54'0 0.0
2015-Jul-07 05:33N 58°21' E 011°54'0 0.0
2015-Jul-07 04:33N 58°21' E 011°54'0 0.0
2015-Jul-07 03:33N 58°21' E 011°54'0 0.0
2015-Jul-07 02:33N 58°21' E 011°54'0 0.0
2015-Jul-07 01:21N 58°21' E 011°54'0 0.0
2015-Jul-07 00:30N 58°21' E 011°54'0 0.0
2015-Jul-06 23:33N 58°21' E 011°54'0 0.0
2015-Jul-06 22:33N 58°21' E 011°54'0 0.0
2015-Jul-06 21:33N 58°21' E 011°54'0 0.0
2015-Jul-06 20:27N 58°21' E 011°54'0 0.0
2015-Jul-06 12:08N 58°21' E 011°54'0 0.0
2015-Jul-06 11:20N 58°21' E 011°54'0 0.0
2015-Jul-06 10:32N 58°21' E 011°54'3 3.4
2015-Jul-06 09:31N 58°19' E 011°49'1212.5
2015-Jul-06 08:32N 58°07' E 011°49'1312.8
2015-Jul-06 07:33N 57°56' E 011°39'1111.3
2015-Jul-06 06:33N 57°51' E 011°19'1010.2
2015-Jul-06 05:33N 57°51' E 011°00'1212.1
2015-Jul-06 04:33N 57°48' E 010°38'4313.4
2015-Jul-06 01:23N 57°33' E 009°24'13813.6
2015-Jul-05 15:15N 55°45' E 006°48'1014.3
2015-Jul-05 14:32N 55°37' E 006°39'2015.7
2015-Jul-05 13:17N 55°20' E 006°21'811.5
2015-Jul-05 12:33N 55°13' E 006°14'1413.6
2015-Jul-05 11:33N 55°01' E 006°02'3013.7
2015-Jul-05 09:22N 54°35' E 005°35'2514.0
2015-Jul-05 07:33N 54°13' E 005°14'1313.4
2015-Jul-05 06:33N 54°01' E 005°04'1413.6
2015-Jul-05 05:33N 53°49' E 004°53'1514.6
2015-Jul-05 04:33N 53°35' E 004°48'1514.2
2015-Jul-05 03:31N 53°21' E 004°41'1313.6
2015-Jul-05 02:33N 53°09' E 004°31'1413.6
2015-Jul-05 01:33N 52°57' E 004°20'1413.7
2015-Jul-05 00:33N 52°45' E 004°09'1313.4
2015-Jul-04 23:33N 52°34' E 003°57'1313.2
2015-Jul-04 22:33N 52°21' E 003°52'1313.4
2015-Jul-04 21:34N 52°08' E 003°54'1110.8
2015-Jul-04 20:33N 51°59' E 004°05'1212.1
2015-Jul-04 19:33N 51°51' E 004°21'10 9.6
2015-Jul-04 18:34N 51°48' E 004°35'2 1.9
2015-Jul-04 17:32N 51°48' E 004°38'0 0.0
2015-Jul-04 16:32N 51°48' E 004°38'0 0.0
2015-Jul-04 14:22N 51°48' E 004°38'0 0.0
2015-Jul-04 13:27N 51°48' E 004°38'0 0.0
2015-Jul-04 12:33N 51°48' E 004°38'0 0.0
2015-Jul-04 11:33N 51°48' E 004°38'0 0.0
2015-Jul-04 10:33N 51°48' E 004°38'0 0.0
2015-Jul-04 09:31N 51°48' E 004°38'0 0.0
2015-Jul-04 08:32N 51°48' E 004°38'0 0.0
2015-Jul-04 07:33N 51°48' E 004°38'0 0.0
2015-Jul-04 06:33N 51°48' E 004°38'0 0.0
2015-Jul-04 05:30N 51°48' E 004°38'0 0.0
2015-Jul-04 04:29N 51°48' E 004°38'0 0.0
2015-Jul-04 03:33N 51°48' E 004°38'0 0.0
2015-Jul-04 02:33N 51°48' E 004°38'0 0.0
2015-Jul-04 01:33N 51°48' E 004°38'0 0.0
2015-Jul-04 00:31N 51°48' E 004°38'0 0.0
2015-Jul-03 23:33N 51°48' E 004°38'0 0.0
2015-Jul-03 22:24N 51°48' E 004°38'0 0.0
2015-Jul-03 21:33N 51°48' E 004°38'3 2.9
2015-Jul-03 20:33N 51°49' E 004°34'8 7.9
2015-Jul-03 19:33N 51°51' E 004°22'9 9.2
2015-Jul-03 18:33N 51°57' E 004°10'1211.9
2015-Jul-03 17:33N 52°00' E 003°52'1312.7
2015-Jul-03 16:32N 51°56' E 003°32'2814.3
2015-Jul-03 14:33N 51°48' E 002°48'1614.6
2015-Jul-03 13:29N 51°39' E 002°28'1414.4
2015-Jul-03 12:30N 51°28' E 002°12'1213.1
2015-Jul-03 11:34N 51°17' E 002°05'1212.0
2015-Jul-03 10:33N 51°09' E 001°51'1211.9
2015-Jul-03 09:33N 51°01' E 001°36'1110.9
2015-Jul-03 08:33N 50°53' E 001°24'1010.1
2015-Jul-03 07:31N 50°43' E 001°19'9711.8
2015-Jul-02 23:18N 50°08' W 001°02'1114.9
2015-Jul-02 22:34N 50°05' W 001°19'4016.7
2015-Jul-02 20:09N 49°55' W 002°19'1116.5
2015-Jul-02 19:30N 49°52' W 002°35'  
2015-Jun-30 11:17N 39°30' W 009°51'1013.1
2015-Jun-30 10:32N 39°20' W 009°51'1313.1
2015-Jun-30 09:33N 39°07' W 009°51'1313.2
2015-Jun-30 08:33N 38°54' W 009°52'1312.9
2015-Jun-30 07:33N 38°41' W 009°51'1211.9
2015-Jun-30 06:34N 38°30' W 009°48'1212.4
2015-Jun-30 05:33N 38°18' W 009°44'1212.1
2015-Jun-30 04:33N 38°06' W 009°41'1212.2
2015-Jun-30 03:33N 37°54' W 009°37'1312.7
2015-Jun-30 02:33N 37°42' W 009°33'1312.9
2015-Jun-30 01:33N 37°29' W 009°30'1313.0
2015-Jun-30 00:33N 37°17' W 009°26'1312.8
2015-Jun-29 23:33N 37°04' W 009°22'1212.5
2015-Jun-29 22:33N 36°52' W 009°17'1312.6
2015-Jun-29 21:33N 36°44' W 009°06'1312.7
2015-Jun-29 20:33N 36°40' W 008°51'16712.9
2015-Jun-29 07:33N 35°59' W 005°29'1111.3
2015-Jun-29 06:33N 36°02' W 005°16'9112.5
2015-Jun-28 23:14N 36°16' W 003°24'913.3
2015-Jun-28 22:33N 36°18' W 003°13'1313.0
2015-Jun-28 21:32N 36°20' W 002°57'1313.2
2015-Jun-28 20:33N 36°22' W 002°41'1413.6
2015-Jun-28 19:34N 36°24' W 002°24'1413.6
2015-Jun-28 18:33N 36°27' W 002°08'1413.8
2015-Jun-28 17:31N 36°35' W 001°53'1313.8
2015-Jun-28 16:33N 36°42' W 001°39'2713.5
2015-Jun-28 14:33N 36°56' W 001°10'1413.3
2015-Jun-28 13:32N 37°03' W 000°55'1313.4
2015-Jun-28 12:33N 37°10' W 000°41'1313.2
2015-Jun-28 11:33N 37°17' W 000°28'1413.7
2015-Jun-28 10:32N 37°25' W 000°12'1313.5
2015-Jun-28 09:33N 37°32' E 000°02'1413.5
2015-Jun-28 08:32N 37°39' E 000°16'5513.5
2015-Jun-28 04:27N 38°08' E 001°16'1813.4
2015-Jun-28 03:05N 38°18' E 001°35'713.4
2015-Jun-28 02:33N 38°21' E 001°43'1413.4
2015-Jun-28 01:31N 38°29' E 001°58'1313.8
2015-Jun-28 00:33N 38°36' E 002°12'1414.1
2015-Jun-27 23:33N 38°43' E 002°28'1414.1
2015-Jun-27 22:33N 38°51' E 002°43'1413.9
2015-Jun-27 21:33N 38°58' E 002°58'1413.8
2015-Jun-27 20:33N 39°05' E 003°13'1413.8
2015-Jun-27 19:33N 39°13' E 003°28'1413.9
2015-Jun-27 18:33N 39°20' E 003°44'  
Track history (hours):
 
Tides and Currents Weather Stations Pressure Air Temp Water Temp Dewpoint Dewpoint Depression Visibility Wind Speed Wind Dir Waves Ship Positions

Anjeliersgracht

Last reported at 2015-Jul-07 17:33 UTC. Time now 2015-Jul-07 17:36 UTC.
Position N 58°20' E 011°52'.

Length 130 m; beam 19 m; draft 9 m.

Type: Cargo ship. MMSI: 244716000.

Date/timePositionNaut miles runAvg speedWind from/ knotsBaromVisibWave heightAir tempDewpointWater temp
2015-Jul-07 17:33N 58°20' E 011°52'1 1.3
2015-Jul-07 16:34N 58°21' E 011°54'0 0.0
2015-Jul-07 15:33N 58°21' E 011°54'0 0.0
2015-Jul-07 06:09N 58°21' E 011°54'0 0.0
2015-Jul-07 05:33N 58°21' E 011°54'0 0.0
2015-Jul-07 04:33N 58°21' E 011°54'0 0.0
2015-Jul-07 03:33N 58°21' E 011°54'0 0.0
2015-Jul-07 02:33N 58°21' E 011°54'0 0.0
2015-Jul-07 01:21N 58°21' E 011°54'0 0.0
2015-Jul-07 00:30N 58°21' E 011°54'0 0.0
2015-Jul-06 23:33N 58°21' E 011°54'0 0.0
2015-Jul-06 22:33N 58°21' E 011°54'0 0.0
2015-Jul-06 21:33N 58°21' E 011°54'0 0.0
2015-Jul-06 20:27N 58°21' E 011°54'0 0.0
2015-Jul-06 12:08N 58°21' E 011°54'0 0.0
2015-Jul-06 11:20N 58°21' E 011°54'0 0.0
2015-Jul-06 10:32N 58°21' E 011°54'3 3.4
2015-Jul-06 09:31N 58°19' E 011°49'1212.5
2015-Jul-06 08:32N 58°07' E 011°49'1312.8
2015-Jul-06 07:33N 57°56' E 011°39'1111.3
2015-Jul-06 06:33N 57°51' E 011°19'1010.2
2015-Jul-06 05:33N 57°51' E 011°00'1212.1
2015-Jul-06 04:33N 57°48' E 010°38'4313.4
2015-Jul-06 01:23N 57°33' E 009°24'13813.6
2015-Jul-05 15:15N 55°45' E 006°48'1014.3
2015-Jul-05 14:32N 55°37' E 006°39'2015.7
2015-Jul-05 13:17N 55°20' E 006°21'811.5
2015-Jul-05 12:33N 55°13' E 006°14'1413.6
2015-Jul-05 11:33N 55°01' E 006°02'3013.7
2015-Jul-05 09:22N 54°35' E 005°35'2514.0
2015-Jul-05 07:33N 54°13' E 005°14'1313.4
2015-Jul-05 06:33N 54°01' E 005°04'1413.6
2015-Jul-05 05:33N 53°49' E 004°53'1514.6
2015-Jul-05 04:33N 53°35' E 004°48'1514.2
2015-Jul-05 03:31N 53°21' E 004°41'1313.6
2015-Jul-05 02:33N 53°09' E 004°31'1413.6
2015-Jul-05 01:33N 52°57' E 004°20'1413.7
2015-Jul-05 00:33N 52°45' E 004°09'1313.4
2015-Jul-04 23:33N 52°34' E 003°57'1313.2
2015-Jul-04 22:33N 52°21' E 003°52'1313.4
2015-Jul-04 21:34N 52°08' E 003°54'1110.8
2015-Jul-04 20:33N 51°59' E 004°05'1212.1
2015-Jul-04 19:33N 51°51' E 004°21'10 9.6
2015-Jul-04 18:34N 51°48' E 004°35'2 1.9
2015-Jul-04 17:32N 51°48' E 004°38'0 0.0
2015-Jul-04 16:32N 51°48' E 004°38'0 0.0
2015-Jul-04 14:22N 51°48' E 004°38'0 0.0
2015-Jul-04 13:27N 51°48' E 004°38'0 0.0
2015-Jul-04 12:33N 51°48' E 004°38'0 0.0
2015-Jul-04 11:33N 51°48' E 004°38'0 0.0
2015-Jul-04 10:33N 51°48' E 004°38'0 0.0
2015-Jul-04 09:31N 51°48' E 004°38'0 0.0
2015-Jul-04 08:32N 51°48' E 004°38'0 0.0
2015-Jul-04 07:33N 51°48' E 004°38'0 0.0
2015-Jul-04 06:33N 51°48' E 004°38'0 0.0
2015-Jul-04 05:30N 51°48' E 004°38'0 0.0
2015-Jul-04 04:29N 51°48' E 004°38'0 0.0
2015-Jul-04 03:33N 51°48' E 004°38'0 0.0
2015-Jul-04 02:33N 51°48' E 004°38'0 0.0
2015-Jul-04 01:33N 51°48' E 004°38'0 0.0
2015-Jul-04 00:31N 51°48' E 004°38'0 0.0
2015-Jul-03 23:33N 51°48' E 004°38'0 0.0
2015-Jul-03 22:24N 51°48' E 004°38'0 0.0
2015-Jul-03 21:33N 51°48' E 004°38'3 2.9
2015-Jul-03 20:33N 51°49' E 004°34'8 7.9
2015-Jul-03 19:33N 51°51' E 004°22'9 9.2
2015-Jul-03 18:33N 51°57' E 004°10'1211.9
2015-Jul-03 17:33N 52°00' E 003°52'1312.7
2015-Jul-03 16:32N 51°56' E 003°32'2814.3
2015-Jul-03 14:33N 51°48' E 002°48'1614.6
2015-Jul-03 13:29N 51°39' E 002°28'1414.4
2015-Jul-03 12:30N 51°28' E 002°12'1213.1
2015-Jul-03 11:34N 51°17' E 002°05'1212.0
2015-Jul-03 10:33N 51°09' E 001°51'1211.9
2015-Jul-03 09:33N 51°01' E 001°36'1110.9
2015-Jul-03 08:33N 50°53' E 001°24'1010.1
2015-Jul-03 07:31N 50°43' E 001°19'9711.8
2015-Jul-02 23:18N 50°08' W 001°02'1114.9
2015-Jul-02 22:34N 50°05' W 001°19'4016.7
2015-Jul-02 20:09N 49°55' W 002°19'1116.5
2015-Jul-02 19:30N 49°52' W 002°35'  
2015-Jun-30 11:17N 39°30' W 009°51'1013.1
2015-Jun-30 10:32N 39°20' W 009°51'1313.1
2015-Jun-30 09:33N 39°07' W 009°51'1313.2
2015-Jun-30 08:33N 38°54' W 009°52'1312.9
2015-Jun-30 07:33N 38°41' W 009°51'1211.9
2015-Jun-30 06:34N 38°30' W 009°48'1212.4
2015-Jun-30 05:33N 38°18' W 009°44'1212.1
2015-Jun-30 04:33N 38°06' W 009°41'1212.2
2015-Jun-30 03:33N 37°54' W 009°37'1312.7
2015-Jun-30 02:33N 37°42' W 009°33'1312.9
2015-Jun-30 01:33N 37°29' W 009°30'1313.0
2015-Jun-30 00:33N 37°17' W 009°26'1312.8
2015-Jun-29 23:33N 37°04' W 009°22'1212.5
2015-Jun-29 22:33N 36°52' W 009°17'1312.6
2015-Jun-29 21:33N 36°44' W 009°06'1312.7
2015-Jun-29 20:33N 36°40' W 008°51'16712.9
2015-Jun-29 07:33N 35°59' W 005°29'1111.3
2015-Jun-29 06:33N 36°02' W 005°16'9112.5
2015-Jun-28 23:14N 36°16' W 003°24'913.3
2015-Jun-28 22:33N 36°18' W 003°13'1313.0
2015-Jun-28 21:32N 36°20' W 002°57'1313.2
2015-Jun-28 20:33N 36°22' W 002°41'1413.6
2015-Jun-28 19:34N 36°24' W 002°24'1413.6
2015-Jun-28 18:33N 36°27' W 002°08'1413.8
2015-Jun-28 17:31N 36°35' W 001°53'1313.8
2015-Jun-28 16:33N 36°42' W 001°39'2713.5
2015-Jun-28 14:33N 36°56' W 001°10'1413.3
2015-Jun-28 13:32N 37°03' W 000°55'1313.4
2015-Jun-28 12:33N 37°10' W 000°41'1313.2
2015-Jun-28 11:33N 37°17' W 000°28'1413.7
2015-Jun-28 10:32N 37°25' W 000°12'1313.5
2015-Jun-28 09:33N 37°32' E 000°02'1413.5
2015-Jun-28 08:32N 37°39' E 000°16'5513.5
2015-Jun-28 04:27N 38°08' E 001°16'1813.4
2015-Jun-28 03:05N 38°18' E 001°35'713.4
2015-Jun-28 02:33N 38°21' E 001°43'1413.4
2015-Jun-28 01:31N 38°29' E 001°58'1313.8
2015-Jun-28 00:33N 38°36' E 002°12'1414.1
2015-Jun-27 23:33N 38°43' E 002°28'1414.1
2015-Jun-27 22:33N 38°51' E 002°43'1413.9
2015-Jun-27 21:33N 38°58' E 002°58'1413.8
2015-Jun-27 20:33N 39°05' E 003°13'1413.8
2015-Jun-27 19:33N 39°13' E 003°28'1413.9
2015-Jun-27 18:33N 39°20' E 003°44'  

Dump ship's entire track history